sensor_id;sensor_type;location;lat;lon;timestamp;P1;durP1;ratioP1;P2;durP2;ratioP2
20527;SDS011;23612;50.894;10.700;2022-12-20T00:01:28;24.73;;;14.30;;
20527;SDS011;23612;50.894;10.700;2022-12-20T00:03:55;24.15;;;14.02;;
20527;SDS011;23612;50.894;10.700;2022-12-20T00:06:23;22.42;;;12.45;;
20527;SDS011;23612;50.894;10.700;2022-12-20T00:08:57;20.05;;;11.77;;
20527;SDS011;23612;50.894;10.700;2022-12-20T00:11:24;23.25;;;12.65;;
20527;SDS011;23612;50.894;10.700;2022-12-20T00:13:50;22.95;;;12.48;;
20527;SDS011;23612;50.894;10.700;2022-12-20T00:16:17;25.35;;;12.20;;
20527;SDS011;23612;50.894;10.700;2022-12-20T00:18:45;21.25;;;12.02;;
20527;SDS011;23612;50.894;10.700;2022-12-20T00:21:12;17.02;;;10.80;;
20527;SDS011;23612;50.894;10.700;2022-12-20T00:23:38;23.25;;;11.25;;
20527;SDS011;23612;50.894;10.700;2022-12-20T00:26:05;19.15;;;11.73;;
20527;SDS011;23612;50.894;10.700;2022-12-20T00:28:36;20.83;;;12.15;;
20527;SDS011;23612;50.894;10.700;2022-12-20T00:31:03;21.42;;;12.48;;
20527;SDS011;23612;50.894;10.700;2022-12-20T00:33:30;23.05;;;12.75;;
20527;SDS011;23612;50.894;10.700;2022-12-20T00:35:56;23.75;;;13.25;;
20527;SDS011;23612;50.894;10.700;2022-12-20T00:38:22;27.27;;;14.38;;
20527;SDS011;23612;50.894;10.700;2022-12-20T00:43:45;28.05;;;13.98;;
20527;SDS011;23612;50.894;10.700;2022-12-20T00:46:12;23.65;;;13.60;;
20527;SDS011;23612;50.894;10.700;2022-12-20T00:48:38;26.25;;;15.10;;
20527;SDS011;23612;50.894;10.700;2022-12-20T00:51:09;26.63;;;14.57;;
20527;SDS011;23612;50.894;10.700;2022-12-20T00:53:40;21.95;;;13.35;;
20527;SDS011;23612;50.894;10.700;2022-12-20T00:56:06;23.30;;;13.98;;
20527;SDS011;23612;50.894;10.700;2022-12-20T00:58:33;23.98;;;14.30;;
20527;SDS011;23612;50.894;10.700;2022-12-20T01:01:01;27.08;;;14.75;;
20527;SDS011;23612;50.894;10.700;2022-12-20T01:03:27;26.45;;;14.68;;
20527;SDS011;23612;50.894;10.700;2022-12-20T01:05:54;23.63;;;14.48;;
20527;SDS011;23612;50.894;10.700;2022-12-20T01:08:22;23.63;;;13.90;;
20527;SDS011;23612;50.894;10.700;2022-12-20T01:11:01;26.58;;;13.52;;
20527;SDS011;23612;50.894;10.700;2022-12-20T01:13:32;27.02;;;14.68;;
20527;SDS011;23612;50.894;10.700;2022-12-20T01:16:06;23.27;;;14.13;;
20527;SDS011;23612;50.894;10.700;2022-12-20T01:18:33;22.88;;;14.60;;
20527;SDS011;23612;50.894;10.700;2022-12-20T01:21:00;23.27;;;14.38;;
20527;SDS011;23612;50.894;10.700;2022-12-20T01:23:33;24.13;;;13.75;;
20527;SDS011;23612;50.894;10.700;2022-12-20T01:26:00;24.17;;;13.88;;
20527;SDS011;23612;50.894;10.700;2022-12-20T01:28:28;24.13;;;13.88;;
20527;SDS011;23612;50.894;10.700;2022-12-20T01:30:55;24.45;;;14.05;;
20527;SDS011;23612;50.894;10.700;2022-12-20T01:33:21;20.88;;;13.02;;
20527;SDS011;23612;50.894;10.700;2022-12-20T01:35:57;22.92;;;13.27;;
20527;SDS011;23612;50.894;10.700;2022-12-20T01:38:25;27.33;;;14.18;;
20527;SDS011;23612;50.894;10.700;2022-12-20T01:40:51;24.77;;;13.75;;
20527;SDS011;23612;50.894;10.700;2022-12-20T01:43:17;25.42;;;14.02;;
20527;SDS011;23612;50.894;10.700;2022-12-20T01:45:43;24.08;;;13.68;;
20527;SDS011;23612;50.894;10.700;2022-12-20T01:48:10;22.90;;;13.38;;
20527;SDS011;23612;50.894;10.700;2022-12-20T01:50:38;25.20;;;13.50;;
20527;SDS011;23612;50.894;10.700;2022-12-20T01:53:03;23.77;;;13.85;;
20527;SDS011;23612;50.894;10.700;2022-12-20T01:55:29;23.50;;;13.07;;
20527;SDS011;23612;50.894;10.700;2022-12-20T01:58:01;26.23;;;14.07;;
20527;SDS011;23612;50.894;10.700;2022-12-20T02:00:29;26.65;;;14.10;;
20527;SDS011;23612;50.894;10.700;2022-12-20T02:02:57;24.10;;;13.75;;
20527;SDS011;23612;50.894;10.700;2022-12-20T02:05:25;24.33;;;13.65;;
20527;SDS011;23612;50.894;10.700;2022-12-20T02:07:52;22.55;;;13.90;;
20527;SDS011;23612;50.894;10.700;2022-12-20T02:10:19;23.20;;;13.27;;
20527;SDS011;23612;50.894;10.700;2022-12-20T02:12:48;24.83;;;13.10;;
20527;SDS011;23612;50.894;10.700;2022-12-20T02:15:27;21.90;;;13.05;;
20527;SDS011;23612;50.894;10.700;2022-12-20T02:31:42;22.17;;;13.23;;
20527;SDS011;23612;50.894;10.700;2022-12-20T02:34:16;26.13;;;13.27;;
20527;SDS011;23612;50.894;10.700;2022-12-20T02:36:45;23.42;;;13.13;;
20527;SDS011;23612;50.894;10.700;2022-12-20T02:39:14;24.17;;;14.05;;
20527;SDS011;23612;50.894;10.700;2022-12-20T02:41:41;20.23;;;13.27;;
20527;SDS011;23612;50.894;10.700;2022-12-20T02:44:32;23.85;;;14.30;;
20527;SDS011;23612;50.894;10.700;2022-12-20T02:47:24;22.65;;;14.30;;
20527;SDS011;23612;50.894;10.700;2022-12-20T02:49:54;24.80;;;14.43;;
20527;SDS011;23612;50.894;10.700;2022-12-20T02:52:21;23.02;;;13.75;;
20527;SDS011;23612;50.894;10.700;2022-12-20T02:54:50;24.08;;;14.25;;
20527;SDS011;23612;50.894;10.700;2022-12-20T02:57:20;27.02;;;13.57;;
20527;SDS011;23612;50.894;10.700;2022-12-20T03:02:22;25.58;;;13.73;;
20527;SDS011;23612;50.894;10.700;2022-12-20T03:04:48;19.05;;;11.85;;
20527;SDS011;23612;50.894;10.700;2022-12-20T03:07:15;21.50;;;12.77;;
20527;SDS011;23612;50.894;10.700;2022-12-20T03:09:42;20.17;;;12.15;;
20527;SDS011;23612;50.894;10.700;2022-12-20T03:12:09;19.05;;;12.15;;
20527;SDS011;23612;50.894;10.700;2022-12-20T03:14:36;20.85;;;11.77;;
20527;SDS011;23612;50.894;10.700;2022-12-20T03:17:03;20.98;;;12.00;;
20527;SDS011;23612;50.894;10.700;2022-12-20T03:19:29;18.10;;;10.73;;
20527;SDS011;23612;50.894;10.700;2022-12-20T03:21:55;21.85;;;11.45;;
20527;SDS011;23612;50.894;10.700;2022-12-20T03:24:20;16.60;;;11.00;;
20527;SDS011;23612;50.894;10.700;2022-12-20T03:26:46;19.17;;;11.13;;
20527;SDS011;23612;50.894;10.700;2022-12-20T03:29:12;17.67;;;9.80;;
20527;SDS011;23612;50.894;10.700;2022-12-20T03:31:37;16.65;;;10.30;;
20527;SDS011;23612;50.894;10.700;2022-12-20T03:34:03;16.05;;;9.93;;
20527;SDS011;23612;50.894;10.700;2022-12-20T03:36:29;15.35;;;9.70;;
20527;SDS011;23612;50.894;10.700;2022-12-20T03:38:55;15.15;;;9.38;;
20527;SDS011;23612;50.894;10.700;2022-12-20T03:41:21;14.48;;;9.70;;
20527;SDS011;23612;50.894;10.700;2022-12-20T03:43:47;14.55;;;9.57;;
20527;SDS011;23612;50.894;10.700;2022-12-20T03:46:13;17.92;;;9.02;;
20527;SDS011;23612;50.894;10.700;2022-12-20T03:48:39;16.52;;;9.18;;
20527;SDS011;23612;50.894;10.700;2022-12-20T03:51:05;12.38;;;8.15;;
20527;SDS011;23612;50.894;10.700;2022-12-20T03:53:31;13.85;;;8.32;;
20527;SDS011;23612;50.894;10.700;2022-12-20T03:55:56;12.63;;;8.30;;
20527;SDS011;23612;50.894;10.700;2022-12-20T03:58:22;11.50;;;7.70;;
20527;SDS011;23612;50.894;10.700;2022-12-20T04:00:48;14.10;;;7.45;;
20527;SDS011;23612;50.894;10.700;2022-12-20T04:03:14;11.52;;;7.28;;
20527;SDS011;23612;50.894;10.700;2022-12-20T04:05:39;13.02;;;7.97;;
20527;SDS011;23612;50.894;10.700;2022-12-20T04:08:05;13.30;;;7.35;;
20527;SDS011;23612;50.894;10.700;2022-12-20T04:10:30;16.42;;;8.23;;
20527;SDS011;23612;50.894;10.700;2022-12-20T04:12:56;12.25;;;7.53;;
20527;SDS011;23612;50.894;10.700;2022-12-20T04:15:22;14.25;;;8.02;;
20527;SDS011;23612;50.894;10.700;2022-12-20T04:17:47;12.45;;;7.03;;
20527;SDS011;23612;50.894;10.700;2022-12-20T04:20:13;14.27;;;8.05;;
20527;SDS011;23612;50.894;10.700;2022-12-20T04:22:49;12.50;;;8.15;;
20527;SDS011;23612;50.894;10.700;2022-12-20T04:25:16;15.88;;;8.38;;
20527;SDS011;23612;50.894;10.700;2022-12-20T04:27:43;17.10;;;9.82;;
20527;SDS011;23612;50.894;10.700;2022-12-20T04:30:09;15.35;;;8.82;;
20527;SDS011;23612;50.894;10.700;2022-12-20T04:32:35;14.20;;;8.20;;
20527;SDS011;23612;50.894;10.700;2022-12-20T04:35:01;13.43;;;8.52;;
20527;SDS011;23612;50.894;10.700;2022-12-20T04:37:28;11.52;;;8.02;;
20527;SDS011;23612;50.894;10.700;2022-12-20T04:39:54;11.68;;;7.78;;
20527;SDS011;23612;50.894;10.700;2022-12-20T04:42:20;14.35;;;7.78;;
20527;SDS011;23612;50.894;10.700;2022-12-20T04:44:46;13.75;;;7.95;;
20527;SDS011;23612;50.894;10.700;2022-12-20T04:47:11;13.68;;;7.40;;
20527;SDS011;23612;50.894;10.700;2022-12-20T04:49:37;13.07;;;7.90;;
20527;SDS011;23612;50.894;10.700;2022-12-20T04:52:02;14.68;;;8.77;;
20527;SDS011;23612;50.894;10.700;2022-12-20T04:54:46;15.50;;;8.00;;
20527;SDS011;23612;50.894;10.700;2022-12-20T04:57:12;13.10;;;7.55;;
20527;SDS011;23612;50.894;10.700;2022-12-20T04:59:38;14.73;;;8.90;;
20527;SDS011;23612;50.894;10.700;2022-12-20T05:02:03;17.05;;;8.25;;
20527;SDS011;23612;50.894;10.700;2022-12-20T05:04:29;14.48;;;7.97;;
20527;SDS011;23612;50.894;10.700;2022-12-20T05:06:54;10.38;;;7.45;;
20527;SDS011;23612;50.894;10.700;2022-12-20T05:09:20;15.23;;;8.60;;
20527;SDS011;23612;50.894;10.700;2022-12-20T05:11:46;16.73;;;8.98;;
20527;SDS011;23612;50.894;10.700;2022-12-20T05:14:11;17.27;;;9.85;;
20527;SDS011;23612;50.894;10.700;2022-12-20T05:16:37;15.07;;;9.02;;
20527;SDS011;23612;50.894;10.700;2022-12-20T05:19:03;16.70;;;9.20;;
20527;SDS011;23612;50.894;10.700;2022-12-20T05:21:28;17.10;;;9.98;;
20527;SDS011;23612;50.894;10.700;2022-12-20T05:24:13;14.88;;;9.27;;
20527;SDS011;23612;50.894;10.700;2022-12-20T05:26:57;16.17;;;8.57;;
20527;SDS011;23612;50.894;10.700;2022-12-20T05:29:23;13.32;;;8.73;;
20527;SDS011;23612;50.894;10.700;2022-12-20T05:31:49;14.52;;;8.70;;
20527;SDS011;23612;50.894;10.700;2022-12-20T05:34:14;12.68;;;8.07;;
20527;SDS011;23612;50.894;10.700;2022-12-20T05:36:40;13.85;;;8.63;;
20527;SDS011;23612;50.894;10.700;2022-12-20T05:39:05;11.50;;;7.93;;
20527;SDS011;23612;50.894;10.700;2022-12-20T05:41:31;14.90;;;8.55;;
20527;SDS011;23612;50.894;10.700;2022-12-20T05:43:57;13.02;;;8.45;;
20527;SDS011;23612;50.894;10.700;2022-12-20T05:46:22;12.77;;;7.30;;
20527;SDS011;23612;50.894;10.700;2022-12-20T05:48:48;13.20;;;8.38;;
20527;SDS011;23612;50.894;10.700;2022-12-20T05:51:13;13.35;;;7.63;;
20527;SDS011;23612;50.894;10.700;2022-12-20T05:53:39;14.18;;;7.70;;
20527;SDS011;23612;50.894;10.700;2022-12-20T05:56:05;15.48;;;8.32;;
20527;SDS011;23612;50.894;10.700;2022-12-20T05:58:30;16.27;;;7.90;;
20527;SDS011;23612;50.894;10.700;2022-12-20T06:00:58;13.88;;;7.60;;
20527;SDS011;23612;50.894;10.700;2022-12-20T06:03:28;12.27;;;8.13;;
20527;SDS011;23612;50.894;10.700;2022-12-20T06:05:54;12.20;;;7.53;;
20527;SDS011;23612;50.894;10.700;2022-12-20T06:08:20;11.73;;;7.47;;
20527;SDS011;23612;50.894;10.700;2022-12-20T06:10:47;13.43;;;8.60;;
20527;SDS011;23612;50.894;10.700;2022-12-20T06:13:13;10.70;;;7.35;;
20527;SDS011;23612;50.894;10.700;2022-12-20T06:15:39;12.65;;;7.88;;
20527;SDS011;23612;50.894;10.700;2022-12-20T06:18:05;15.48;;;8.45;;
20527;SDS011;23612;50.894;10.700;2022-12-20T06:20:32;14.07;;;8.40;;
20527;SDS011;23612;50.894;10.700;2022-12-20T06:22:58;15.63;;;9.05;;
20527;SDS011;23612;50.894;10.700;2022-12-20T06:25:24;13.63;;;8.52;;
20527;SDS011;23612;50.894;10.700;2022-12-20T06:27:49;14.05;;;8.90;;
20527;SDS011;23612;50.894;10.700;2022-12-20T06:30:15;16.80;;;10.07;;
20527;SDS011;23612;50.894;10.700;2022-12-20T06:35:15;15.48;;;9.00;;
20527;SDS011;23612;50.894;10.700;2022-12-20T06:37:41;16.02;;;10.63;;
20527;SDS011;23612;50.894;10.700;2022-12-20T06:40:07;15.68;;;10.90;;
20527;SDS011;23612;50.894;10.700;2022-12-20T06:42:34;17.42;;;9.68;;
20527;SDS011;23612;50.894;10.700;2022-12-20T06:45:00;16.27;;;10.13;;
20527;SDS011;23612;50.894;10.700;2022-12-20T06:47:25;13.52;;;9.38;;
20527;SDS011;23612;50.894;10.700;2022-12-20T06:49:51;16.58;;;9.40;;
20527;SDS011;23612;50.894;10.700;2022-12-20T06:52:16;18.73;;;11.07;;
20527;SDS011;23612;50.894;10.700;2022-12-20T06:54:42;16.35;;;9.77;;
20527;SDS011;23612;50.894;10.700;2022-12-20T06:57:07;14.73;;;9.43;;
20527;SDS011;23612;50.894;10.700;2022-12-20T06:59:33;15.27;;;9.95;;
20527;SDS011;23612;50.894;10.700;2022-12-20T07:01:59;13.75;;;8.68;;
20527;SDS011;23612;50.894;10.700;2022-12-20T07:04:24;16.90;;;11.35;;
20527;SDS011;23612;50.894;10.700;2022-12-20T07:06:50;17.05;;;10.40;;
20527;SDS011;23612;50.894;10.700;2022-12-20T07:09:15;19.50;;;12.18;;
20527;SDS011;23612;50.894;10.700;2022-12-20T07:11:41;44.45;;;25.77;;
20527;SDS011;23612;50.894;10.700;2022-12-20T07:14:07;21.00;;;14.52;;
20527;SDS011;23612;50.894;10.700;2022-12-20T07:16:33;10.65;;;6.90;;
20527;SDS011;23612;50.894;10.700;2022-12-20T07:18:59;12.35;;;7.07;;
20527;SDS011;23612;50.894;10.700;2022-12-20T07:21:25;12.00;;;7.28;;
20527;SDS011;23612;50.894;10.700;2022-12-20T07:23:51;24.23;;;14.90;;
20527;SDS011;23612;50.894;10.700;2022-12-20T07:26:18;18.73;;;10.55;;
20527;SDS011;23612;50.894;10.700;2022-12-20T07:28:44;19.98;;;11.95;;
20527;SDS011;23612;50.894;10.700;2022-12-20T07:31:10;19.10;;;11.43;;
20527;SDS011;23612;50.894;10.700;2022-12-20T07:33:35;25.13;;;12.85;;
20527;SDS011;23612;50.894;10.700;2022-12-20T07:36:05;23.45;;;11.43;;
20527;SDS011;23612;50.894;10.700;2022-12-20T07:38:35;11.85;;;7.10;;
20527;SDS011;23612;50.894;10.700;2022-12-20T07:41:07;10.15;;;6.30;;
20527;SDS011;23612;50.894;10.700;2022-12-20T07:43:41;11.57;;;8.18;;
20527;SDS011;23612;50.894;10.700;2022-12-20T07:46:07;10.65;;;6.70;;
20527;SDS011;23612;50.894;10.700;2022-12-20T07:48:35;12.35;;;9.00;;
20527;SDS011;23612;50.894;10.700;2022-12-20T07:51:02;11.82;;;8.60;;
20527;SDS011;23612;50.894;10.700;2022-12-20T07:53:31;10.82;;;7.45;;
20527;SDS011;23612;50.894;10.700;2022-12-20T07:56:00;10.88;;;7.15;;
20527;SDS011;23612;50.894;10.700;2022-12-20T07:58:27;20.50;;;9.65;;
20527;SDS011;23612;50.894;10.700;2022-12-20T08:00:54;16.48;;;6.70;;
20527;SDS011;23612;50.894;10.700;2022-12-20T08:03:21;12.32;;;7.97;;
20527;SDS011;23612;50.894;10.700;2022-12-20T08:05:51;10.00;;;6.07;;
20527;SDS011;23612;50.894;10.700;2022-12-20T08:08:19;9.45;;;6.90;;
20527;SDS011;23612;50.894;10.700;2022-12-20T08:10:46;13.77;;;8.15;;
20527;SDS011;23612;50.894;10.700;2022-12-20T08:13:12;11.13;;;6.88;;
20527;SDS011;23612;50.894;10.700;2022-12-20T08:15:38;10.63;;;5.57;;
20527;SDS011;23612;50.894;10.700;2022-12-20T08:18:04;7.97;;;5.15;;
20527;SDS011;23612;50.894;10.700;2022-12-20T08:20:30;9.13;;;5.72;;
20527;SDS011;23612;50.894;10.700;2022-12-20T08:22:56;10.27;;;6.60;;
20527;SDS011;23612;50.894;10.700;2022-12-20T08:25:22;11.23;;;7.45;;
20527;SDS011;23612;50.894;10.700;2022-12-20T08:27:48;11.00;;;8.18;;
20527;SDS011;23612;50.894;10.700;2022-12-20T08:30:14;13.00;;;7.28;;
20527;SDS011;23612;50.894;10.700;2022-12-20T08:32:40;11.95;;;7.00;;
20527;SDS011;23612;50.894;10.700;2022-12-20T08:35:05;16.45;;;10.10;;
20527;SDS011;23612;50.894;10.700;2022-12-20T08:37:32;12.75;;;8.40;;
20527;SDS011;23612;50.894;10.700;2022-12-20T08:39:57;13.35;;;9.23;;
20527;SDS011;23612;50.894;10.700;2022-12-20T08:42:24;10.18;;;7.28;;
20527;SDS011;23612;50.894;10.700;2022-12-20T08:44:50;11.95;;;7.38;;
20527;SDS011;23612;50.894;10.700;2022-12-20T08:47:16;13.05;;;7.72;;
20527;SDS011;23612;50.894;10.700;2022-12-20T08:49:42;9.00;;;5.90;;
20527;SDS011;23612;50.894;10.700;2022-12-20T08:52:07;10.18;;;6.13;;
20527;SDS011;23612;50.894;10.700;2022-12-20T08:54:33;10.48;;;6.43;;
20527;SDS011;23612;50.894;10.700;2022-12-20T08:56:58;10.02;;;6.45;;
20527;SDS011;23612;50.894;10.700;2022-12-20T08:59:24;7.78;;;5.82;;
20527;SDS011;23612;50.894;10.700;2022-12-20T09:01:50;10.27;;;6.63;;
20527;SDS011;23612;50.894;10.700;2022-12-20T09:04:17;10.35;;;6.50;;
20527;SDS011;23612;50.894;10.700;2022-12-20T09:06:43;9.18;;;6.20;;
20527;SDS011;23612;50.894;10.700;2022-12-20T09:09:08;9.07;;;6.78;;
20527;SDS011;23612;50.894;10.700;2022-12-20T09:11:34;11.52;;;7.40;;
20527;SDS011;23612;50.894;10.700;2022-12-20T09:13:59;15.45;;;7.57;;
20527;SDS011;23612;50.894;10.700;2022-12-20T09:16:27;13.32;;;8.20;;
20527;SDS011;23612;50.894;10.700;2022-12-20T09:18:55;12.90;;;7.50;;
20527;SDS011;23612;50.894;10.700;2022-12-20T09:21:21;13.13;;;8.55;;
20527;SDS011;23612;50.894;10.700;2022-12-20T09:23:50;15.25;;;8.70;;
20527;SDS011;23612;50.894;10.700;2022-12-20T09:26:17;14.23;;;8.27;;
20527;SDS011;23612;50.894;10.700;2022-12-20T09:28:45;13.98;;;8.27;;
20527;SDS011;23612;50.894;10.700;2022-12-20T09:31:12;13.05;;;8.18;;
20527;SDS011;23612;50.894;10.700;2022-12-20T09:33:42;11.27;;;7.78;;
20527;SDS011;23612;50.894;10.700;2022-12-20T09:36:12;13.40;;;7.57;;
20527;SDS011;23612;50.894;10.700;2022-12-20T09:38:39;13.13;;;7.88;;
20527;SDS011;23612;50.894;10.700;2022-12-20T09:41:06;10.50;;;7.05;;
20527;SDS011;23612;50.894;10.700;2022-12-20T09:43:33;13.02;;;7.10;;
20527;SDS011;23612;50.894;10.700;2022-12-20T09:46:01;11.27;;;6.90;;
20527;SDS011;23612;50.894;10.700;2022-12-20T09:48:29;10.40;;;6.75;;
20527;SDS011;23612;50.894;10.700;2022-12-20T09:56:31;10.80;;;6.28;;
20527;SDS011;23612;50.894;10.700;2022-12-20T10:01:29;10.48;;;6.07;;
20527;SDS011;23612;50.894;10.700;2022-12-20T10:03:58;10.45;;;5.80;;
20527;SDS011;23612;50.894;10.700;2022-12-20T10:12:26;11.43;;;6.75;;
20527;SDS011;23612;50.894;10.700;2022-12-20T10:25:50;10.07;;;4.97;;
20527;SDS011;23612;50.894;10.700;2022-12-20T10:28:18;7.93;;;4.93;;
20527;SDS011;23612;50.894;10.700;2022-12-20T10:30:49;7.35;;;5.05;;
20527;SDS011;23612;50.894;10.700;2022-12-20T10:33:17;8.65;;;5.55;;
20527;SDS011;23612;50.894;10.700;2022-12-20T10:35:45;8.75;;;5.50;;
20527;SDS011;23612;50.894;10.700;2022-12-20T10:38:12;8.88;;;5.78;;
20527;SDS011;23612;50.894;10.700;2022-12-20T10:40:42;12.02;;;6.18;;
20527;SDS011;23612;50.894;10.700;2022-12-20T10:43:19;9.05;;;5.90;;
20527;SDS011;23612;50.894;10.700;2022-12-20T10:46:20;11.88;;;6.35;;
20527;SDS011;23612;50.894;10.700;2022-12-20T10:48:41;12.18;;;6.40;;
20527;SDS011;23612;50.894;10.700;2022-12-20T10:56:28;8.43;;;5.18;;
20527;SDS011;23612;50.894;10.700;2022-12-20T10:59:37;10.55;;;6.15;;
20527;SDS011;23612;50.894;10.700;2022-12-20T11:01:45;11.57;;;6.47;;
20527;SDS011;23612;50.894;10.700;2022-12-20T11:07:03;8.15;;;5.97;;
20527;SDS011;23612;50.894;10.700;2022-12-20T11:09:53;8.85;;;5.68;;
20527;SDS011;23612;50.894;10.700;2022-12-20T11:12:20;7.28;;;5.03;;
20527;SDS011;23612;50.894;10.700;2022-12-20T11:14:46;9.90;;;5.47;;
20527;SDS011;23612;50.894;10.700;2022-12-20T11:22:31;11.95;;;6.57;;
20527;SDS011;23612;50.894;10.700;2022-12-20T11:25:15;11.27;;;6.60;;
20527;SDS011;23612;50.894;10.700;2022-12-20T11:30:33;9.18;;;5.50;;
20527;SDS011;23612;50.894;10.700;2022-12-20T11:38:29;7.65;;;5.10;;
20527;SDS011;23612;50.894;10.700;2022-12-20T11:44:11;11.20;;;6.00;;
20527;SDS011;23612;50.894;10.700;2022-12-20T11:57:45;10.77;;;5.75;;
20527;SDS011;23612;50.894;10.700;2022-12-20T12:00:26;9.30;;;5.80;;
20527;SDS011;23612;50.894;10.700;2022-12-20T12:02:53;9.43;;;5.65;;
20527;SDS011;23612;50.894;10.700;2022-12-20T12:05:27;8.68;;;5.35;;
20527;SDS011;23612;50.894;10.700;2022-12-20T12:07:59;10.10;;;5.85;;
20527;SDS011;23612;50.894;10.700;2022-12-20T12:10:36;7.60;;;5.32;;
20527;SDS011;23612;50.894;10.700;2022-12-20T12:13:13;8.07;;;5.43;;
20527;SDS011;23612;50.894;10.700;2022-12-20T12:18:23;10.43;;;5.30;;
20527;SDS011;23612;50.894;10.700;2022-12-20T12:23:41;7.53;;;4.72;;
20527;SDS011;23612;50.894;10.700;2022-12-20T12:26:28;8.77;;;5.55;;
20527;SDS011;23612;50.894;10.700;2022-12-20T12:28:57;9.52;;;5.97;;
20527;SDS011;23612;50.894;10.700;2022-12-20T12:34:29;9.65;;;5.18;;
20527;SDS011;23612;50.894;10.700;2022-12-20T12:42:38;9.48;;;5.68;;
20527;SDS011;23612;50.894;10.700;2022-12-20T12:45:19;7.78;;;5.43;;
20527;SDS011;23612;50.894;10.700;2022-12-20T12:50:32;7.70;;;5.25;;
20527;SDS011;23612;50.894;10.700;2022-12-20T12:53:12;8.95;;;5.53;;
20527;SDS011;23612;50.894;10.700;2022-12-20T12:55:45;7.80;;;5.85;;
20527;SDS011;23612;50.894;10.700;2022-12-20T12:58:21;9.27;;;6.25;;
20527;SDS011;23612;50.894;10.700;2022-12-20T13:03:35;8.48;;;5.90;;
20527;SDS011;23612;50.894;10.700;2022-12-20T13:16:49;10.90;;;5.90;;
20527;SDS011;23612;50.894;10.700;2022-12-20T13:27:47;15.52;;;6.57;;
20527;SDS011;23612;50.894;10.700;2022-12-20T13:40:45;9.23;;;6.43;;
20527;SDS011;23612;50.894;10.700;2022-12-20T13:43:23;10.60;;;6.28;;
20527;SDS011;23612;50.894;10.700;2022-12-20T13:45:53;9.20;;;5.70;;
20527;SDS011;23612;50.894;10.700;2022-12-20T13:48:38;9.95;;;6.68;;
20527;SDS011;23612;50.894;10.700;2022-12-20T13:51:27;10.38;;;6.10;;
20527;SDS011;23612;50.894;10.700;2022-12-20T13:53:56;10.65;;;6.30;;
20527;SDS011;23612;50.894;10.700;2022-12-20T13:58:57;10.77;;;6.38;;
20527;SDS011;23612;50.894;10.700;2022-12-20T14:01:28;11.27;;;5.95;;
20527;SDS011;23612;50.894;10.700;2022-12-20T14:03:55;9.40;;;5.20;;
20527;SDS011;23612;50.894;10.700;2022-12-20T14:06:22;9.48;;;5.60;;
20527;SDS011;23612;50.894;10.700;2022-12-20T14:08:51;10.07;;;5.45;;
20527;SDS011;23612;50.894;10.700;2022-12-20T14:13:53;8.18;;;5.70;;
20527;SDS011;23612;50.894;10.700;2022-12-20T14:16:20;11.02;;;6.55;;
20527;SDS011;23612;50.894;10.700;2022-12-20T14:18:48;13.93;;;6.47;;
20527;SDS011;23612;50.894;10.700;2022-12-20T14:21:14;9.52;;;5.30;;
20527;SDS011;23612;50.894;10.700;2022-12-20T14:23:48;6.35;;;5.05;;
20527;SDS011;23612;50.894;10.700;2022-12-20T14:26:25;7.95;;;5.15;;
20527;SDS011;23612;50.894;10.700;2022-12-20T14:28:53;9.02;;;6.05;;
20527;SDS011;23612;50.894;10.700;2022-12-20T14:31:25;7.95;;;5.10;;
20527;SDS011;23612;50.894;10.700;2022-12-20T14:34:00;6.25;;;4.75;;
20527;SDS011;23612;50.894;10.700;2022-12-20T14:36:26;8.00;;;5.70;;
20527;SDS011;23612;50.894;10.700;2022-12-20T14:38:52;9.77;;;6.10;;
20527;SDS011;23612;50.894;10.700;2022-12-20T14:44:17;8.82;;;5.72;;
20527;SDS011;23612;50.894;10.700;2022-12-20T14:46:46;9.02;;;6.28;;
20527;SDS011;23612;50.894;10.700;2022-12-20T14:49:24;7.80;;;5.70;;
20527;SDS011;23612;50.894;10.700;2022-12-20T14:52:03;9.52;;;6.00;;
20527;SDS011;23612;50.894;10.700;2022-12-20T14:54:41;8.23;;;5.28;;
20527;SDS011;23612;50.894;10.700;2022-12-20T14:57:37;10.10;;;5.63;;
20527;SDS011;23612;50.894;10.700;2022-12-20T15:00:29;7.57;;;5.22;;
20527;SDS011;23612;50.894;10.700;2022-12-20T15:03:01;8.60;;;5.72;;
20527;SDS011;23612;50.894;10.700;2022-12-20T15:10:52;11.15;;;5.88;;
20527;SDS011;23612;50.894;10.700;2022-12-20T15:13:34;6.30;;;5.35;;
20527;SDS011;23612;50.894;10.700;2022-12-20T15:16:02;10.32;;;5.78;;
20527;SDS011;23612;50.894;10.700;2022-12-20T15:18:29;14.00;;;4.95;;
20527;SDS011;23612;50.894;10.700;2022-12-20T15:23:50;7.00;;;4.80;;
20527;SDS011;23612;50.894;10.700;2022-12-20T15:26:19;7.65;;;4.80;;
20527;SDS011;23612;50.894;10.700;2022-12-20T15:28:46;8.10;;;4.80;;
20527;SDS011;23612;50.894;10.700;2022-12-20T15:31:14;8.10;;;5.18;;
20527;SDS011;23612;50.894;10.700;2022-12-20T15:33:41;8.00;;;5.30;;
20527;SDS011;23612;50.894;10.700;2022-12-20T15:36:12;9.93;;;5.20;;
20527;SDS011;23612;50.894;10.700;2022-12-20T15:38:41;11.30;;;6.75;;
20527;SDS011;23612;50.894;10.700;2022-12-20T15:41:07;8.95;;;5.97;;
20527;SDS011;23612;50.894;10.700;2022-12-20T15:43:41;7.85;;;4.93;;
20527;SDS011;23612;50.894;10.700;2022-12-20T15:46:07;9.93;;;4.97;;
20527;SDS011;23612;50.894;10.700;2022-12-20T15:48:32;9.23;;;5.00;;
20527;SDS011;23612;50.894;10.700;2022-12-20T15:50:58;7.30;;;4.63;;
20527;SDS011;23612;50.894;10.700;2022-12-20T15:53:29;6.57;;;4.85;;
20527;SDS011;23612;50.894;10.700;2022-12-20T15:55:57;8.30;;;4.88;;
20527;SDS011;23612;50.894;10.700;2022-12-20T15:58:24;12.48;;;5.40;;
20527;SDS011;23612;50.894;10.700;2022-12-20T16:00:51;13.45;;;5.00;;
20527;SDS011;23612;50.894;10.700;2022-12-20T16:03:20;8.40;;;4.68;;
20527;SDS011;23612;50.894;10.700;2022-12-20T16:05:47;6.43;;;4.40;;
20527;SDS011;23612;50.894;10.700;2022-12-20T16:08:15;7.57;;;4.90;;
20527;SDS011;23612;50.894;10.700;2022-12-20T16:10:42;6.60;;;4.40;;
20527;SDS011;23612;50.894;10.700;2022-12-20T16:13:15;6.35;;;4.85;;
20527;SDS011;23612;50.894;10.700;2022-12-20T16:15:44;9.65;;;5.05;;
20527;SDS011;23612;50.894;10.700;2022-12-20T16:18:10;11.60;;;5.60;;
20527;SDS011;23612;50.894;10.700;2022-12-20T16:20:35;13.05;;;6.78;;
20527;SDS011;23612;50.894;10.700;2022-12-20T16:23:02;18.17;;;9.93;;
20527;SDS011;23612;50.894;10.700;2022-12-20T16:25:30;23.58;;;11.13;;
20527;SDS011;23612;50.894;10.700;2022-12-20T16:27:57;14.93;;;7.00;;
20527;SDS011;23612;50.894;10.700;2022-12-20T16:30:23;9.38;;;4.95;;
20527;SDS011;23612;50.894;10.700;2022-12-20T16:32:49;13.05;;;6.72;;
20527;SDS011;23612;50.894;10.700;2022-12-20T16:35:25;9.52;;;5.85;;
20527;SDS011;23612;50.894;10.700;2022-12-20T16:37:51;9.43;;;5.60;;
20527;SDS011;23612;50.894;10.700;2022-12-20T16:40:17;20.25;;;11.98;;
20527;SDS011;23612;50.894;10.700;2022-12-20T16:42:43;9.40;;;6.47;;
20527;SDS011;23612;50.894;10.700;2022-12-20T16:45:13;24.55;;;12.65;;
20527;SDS011;23612;50.894;10.700;2022-12-20T16:47:43;21.20;;;12.55;;
20527;SDS011;23612;50.894;10.700;2022-12-20T16:50:09;36.42;;;19.45;;
20527;SDS011;23612;50.894;10.700;2022-12-20T16:52:35;8.40;;;6.35;;
20527;SDS011;23612;50.894;10.700;2022-12-20T16:55:01;8.40;;;5.35;;
20527;SDS011;23612;50.894;10.700;2022-12-20T16:57:28;6.22;;;4.93;;